sensor_id;sensor_type;location;lat;lon;timestamp;P1;durP1;ratioP1;P2;durP2;ratioP2
6485;SDS011;3276;48.490;9.222;2024-02-14T00:02:09;8.00;;;6.17;;
6485;SDS011;3276;48.490;9.222;2024-02-14T00:04:34;13.63;;;5.50;;
6485;SDS011;3276;48.490;9.222;2024-02-14T00:07:00;10.53;;;5.70;;
6485;SDS011;3276;48.490;9.222;2024-02-14T00:09:25;6.70;;;4.50;;
6485;SDS011;3276;48.490;9.222;2024-02-14T00:11:51;6.63;;;4.57;;
6485;SDS011;3276;48.490;9.222;2024-02-14T00:14:17;6.17;;;4.50;;
6485;SDS011;3276;48.490;9.222;2024-02-14T00:16:45;9.35;;;4.65;;
6485;SDS011;3276;48.490;9.222;2024-02-14T00:19:10;6.80;;;4.80;;
6485;SDS011;3276;48.490;9.222;2024-02-14T00:21:36;7.10;;;4.27;;
6485;SDS011;3276;48.490;9.222;2024-02-14T00:24:03;6.88;;;3.55;;
6485;SDS011;3276;48.490;9.222;2024-02-14T00:26:29;6.85;;;4.10;;
6485;SDS011;3276;48.490;9.222;2024-02-14T00:28:55;9.97;;;4.57;;
6485;SDS011;3276;48.490;9.222;2024-02-14T00:31:21;5.40;;;3.30;;
6485;SDS011;3276;48.490;9.222;2024-02-14T00:33:46;7.37;;;4.63;;
6485;SDS011;3276;48.490;9.222;2024-02-14T00:36:12;7.67;;;4.00;;
6485;SDS011;3276;48.490;9.222;2024-02-14T00:38:37;8.23;;;4.83;;
6485;SDS011;3276;48.490;9.222;2024-02-14T00:41:03;7.27;;;4.60;;
6485;SDS011;3276;48.490;9.222;2024-02-14T00:43:28;6.83;;;4.20;;
6485;SDS011;3276;48.490;9.222;2024-02-14T00:45:54;6.90;;;4.60;;
6485;SDS011;3276;48.490;9.222;2024-02-14T00:48:21;8.18;;;4.80;;
6485;SDS011;3276;48.490;9.222;2024-02-14T00:50:47;9.43;;;5.47;;
6485;SDS011;3276;48.490;9.222;2024-02-14T00:53:13;9.40;;;4.55;;
6485;SDS011;3276;48.490;9.222;2024-02-14T00:55:39;9.47;;;4.90;;
6485;SDS011;3276;48.490;9.222;2024-02-14T00:58:04;12.57;;;5.73;;
6485;SDS011;3276;48.490;9.222;2024-02-14T01:00:30;8.33;;;4.77;;
6485;SDS011;3276;48.490;9.222;2024-02-14T01:02:57;5.78;;;4.55;;
6485;SDS011;3276;48.490;9.222;2024-02-14T01:05:23;7.18;;;4.97;;
6485;SDS011;3276;48.490;9.222;2024-02-14T01:07:49;6.75;;;4.32;;
6485;SDS011;3276;48.490;9.222;2024-02-14T01:10:15;7.60;;;4.37;;
6485;SDS011;3276;48.490;9.222;2024-02-14T01:12:40;4.53;;;4.13;;
6485;SDS011;3276;48.490;9.222;2024-02-14T01:15:06;6.50;;;4.00;;
6485;SDS011;3276;48.490;9.222;2024-02-14T01:17:32;6.20;;;4.00;;
6485;SDS011;3276;48.490;9.222;2024-02-14T01:19:58;7.17;;;4.50;;
6485;SDS011;3276;48.490;9.222;2024-02-14T01:22:24;7.50;;;4.10;;
6485;SDS011;3276;48.490;9.222;2024-02-14T01:24:49;5.90;;;4.17;;
6485;SDS011;3276;48.490;9.222;2024-02-14T01:27:15;6.10;;;3.23;;
6485;SDS011;3276;48.490;9.222;2024-02-14T01:29:41;7.32;;;2.90;;
6485;SDS011;3276;48.490;9.222;2024-02-14T01:32:07;8.63;;;3.70;;
6485;SDS011;3276;48.490;9.222;2024-02-14T01:34:34;6.30;;;3.23;;
6485;SDS011;3276;48.490;9.222;2024-02-14T01:37:00;5.13;;;3.37;;
6485;SDS011;3276;48.490;9.222;2024-02-14T01:39:25;6.50;;;3.97;;
6485;SDS011;3276;48.490;9.222;2024-02-14T01:41:51;8.20;;;4.47;;
6485;SDS011;3276;48.490;9.222;2024-02-14T01:44:17;6.37;;;3.10;;
6485;SDS011;3276;48.490;9.222;2024-02-14T01:46:43;6.17;;;3.50;;
6485;SDS011;3276;48.490;9.222;2024-02-14T01:49:10;6.93;;;2.80;;
6485;SDS011;3276;48.490;9.222;2024-02-14T01:51:39;6.77;;;3.40;;
6485;SDS011;3276;48.490;9.222;2024-02-14T01:54:07;5.67;;;4.13;;
6485;SDS011;3276;48.490;9.222;2024-02-14T01:56:34;6.00;;;3.97;;
6485;SDS011;3276;48.490;9.222;2024-02-14T01:59:00;6.63;;;4.97;;
6485;SDS011;3276;48.490;9.222;2024-02-14T02:01:26;7.13;;;5.20;;
6485;SDS011;3276;48.490;9.222;2024-02-14T02:03:52;7.87;;;5.20;;
6485;SDS011;3276;48.490;9.222;2024-02-14T02:06:20;11.80;;;6.87;;
6485;SDS011;3276;48.490;9.222;2024-02-14T02:08:45;8.20;;;5.77;;
6485;SDS011;3276;48.490;9.222;2024-02-14T02:11:11;7.60;;;5.93;;
6485;SDS011;3276;48.490;9.222;2024-02-14T02:13:37;6.70;;;5.40;;
6485;SDS011;3276;48.490;9.222;2024-02-14T02:16:04;8.37;;;5.73;;
6485;SDS011;3276;48.490;9.222;2024-02-14T02:18:31;8.47;;;6.00;;
6485;SDS011;3276;48.490;9.222;2024-02-14T02:20:57;8.57;;;6.63;;
6485;SDS011;3276;48.490;9.222;2024-02-14T02:23:22;10.07;;;6.27;;
6485;SDS011;3276;48.490;9.222;2024-02-14T02:25:48;12.33;;;6.80;;
6485;SDS011;3276;48.490;9.222;2024-02-14T02:28:14;9.57;;;6.40;;
6485;SDS011;3276;48.490;9.222;2024-02-14T02:30:39;11.30;;;6.60;;
6485;SDS011;3276;48.490;9.222;2024-02-14T02:33:05;8.83;;;6.90;;
6485;SDS011;3276;48.490;9.222;2024-02-14T02:35:32;6.07;;;4.70;;
6485;SDS011;3276;48.490;9.222;2024-02-14T02:37:58;7.40;;;4.87;;
6485;SDS011;3276;48.490;9.222;2024-02-14T02:40:24;6.10;;;4.47;;
6485;SDS011;3276;48.490;9.222;2024-02-14T02:42:50;7.03;;;5.37;;
6485;SDS011;3276;48.490;9.222;2024-02-14T02:45:16;7.27;;;4.73;;
6485;SDS011;3276;48.490;9.222;2024-02-14T02:47:42;8.40;;;5.20;;
6485;SDS011;3276;48.490;9.222;2024-02-14T02:50:08;9.27;;;5.40;;
6485;SDS011;3276;48.490;9.222;2024-02-14T02:52:34;7.03;;;4.47;;
6485;SDS011;3276;48.490;9.222;2024-02-14T02:54:59;7.33;;;5.47;;
6485;SDS011;3276;48.490;9.222;2024-02-14T02:57:30;6.03;;;4.27;;
6485;SDS011;3276;48.490;9.222;2024-02-14T02:59:57;9.10;;;5.40;;
6485;SDS011;3276;48.490;9.222;2024-02-14T03:02:22;7.97;;;4.33;;
6485;SDS011;3276;48.490;9.222;2024-02-14T03:04:48;7.67;;;5.53;;
6485;SDS011;3276;48.490;9.222;2024-02-14T03:07:15;10.17;;;4.90;;
6485;SDS011;3276;48.490;9.222;2024-02-14T03:09:41;6.47;;;5.43;;
6485;SDS011;3276;48.490;9.222;2024-02-14T03:12:07;4.30;;;3.37;;
6485;SDS011;3276;48.490;9.222;2024-02-14T03:14:33;7.67;;;3.93;;
6485;SDS011;3276;48.490;9.222;2024-02-14T03:17:01;5.23;;;3.50;;
6485;SDS011;3276;48.490;9.222;2024-02-14T03:19:27;4.40;;;3.13;;
6485;SDS011;3276;48.490;9.222;2024-02-14T03:21:54;6.50;;;3.57;;
6485;SDS011;3276;48.490;9.222;2024-02-14T03:24:20;4.80;;;2.97;;
6485;SDS011;3276;48.490;9.222;2024-02-14T03:26:45;4.57;;;2.70;;
6485;SDS011;3276;48.490;9.222;2024-02-14T03:29:11;3.30;;;2.20;;
6485;SDS011;3276;48.490;9.222;2024-02-14T03:31:37;3.10;;;2.17;;
6485;SDS011;3276;48.490;9.222;2024-02-14T03:34:03;4.73;;;2.20;;
6485;SDS011;3276;48.490;9.222;2024-02-14T03:36:28;4.33;;;2.30;;
6485;SDS011;3276;48.490;9.222;2024-02-14T03:38:55;3.43;;;2.00;;
6485;SDS011;3276;48.490;9.222;2024-02-14T03:41:22;3.07;;;1.60;;
6485;SDS011;3276;48.490;9.222;2024-02-14T03:43:47;6.77;;;2.53;;
6485;SDS011;3276;48.490;9.222;2024-02-14T03:46:14;3.93;;;2.80;;
6485;SDS011;3276;48.490;9.222;2024-02-14T03:48:40;3.60;;;2.20;;
6485;SDS011;3276;48.490;9.222;2024-02-14T03:51:08;3.10;;;1.87;;
6485;SDS011;3276;48.490;9.222;2024-02-14T03:53:33;3.43;;;2.27;;
6485;SDS011;3276;48.490;9.222;2024-02-14T03:55:59;4.57;;;2.60;;
6485;SDS011;3276;48.490;9.222;2024-02-14T03:58:25;7.40;;;4.30;;
6485;SDS011;3276;48.490;9.222;2024-02-14T04:00:51;6.90;;;5.00;;
6485;SDS011;3276;48.490;9.222;2024-02-14T04:03:17;6.30;;;4.50;;
6485;SDS011;3276;48.490;9.222;2024-02-14T04:05:42;4.60;;;3.77;;
6485;SDS011;3276;48.490;9.222;2024-02-14T04:08:10;6.13;;;4.90;;
6485;SDS011;3276;48.490;9.222;2024-02-14T04:10:36;6.00;;;4.47;;
6485;SDS011;3276;48.490;9.222;2024-02-14T04:13:03;11.30;;;5.40;;
6485;SDS011;3276;48.490;9.222;2024-02-14T04:15:30;7.80;;;6.10;;
6485;SDS011;3276;48.490;9.222;2024-02-14T04:17:56;8.23;;;5.53;;
6485;SDS011;3276;48.490;9.222;2024-02-14T04:20:22;10.70;;;5.73;;
6485;SDS011;3276;48.490;9.222;2024-02-14T04:22:47;6.13;;;4.67;;
6485;SDS011;3276;48.490;9.222;2024-02-14T04:25:13;7.77;;;5.50;;
6485;SDS011;3276;48.490;9.222;2024-02-14T04:27:38;9.23;;;5.30;;
6485;SDS011;3276;48.490;9.222;2024-02-14T04:30:04;6.20;;;4.40;;
6485;SDS011;3276;48.490;9.222;2024-02-14T04:32:30;8.67;;;4.97;;
6485;SDS011;3276;48.490;9.222;2024-02-14T04:34:56;9.37;;;5.50;;
6485;SDS011;3276;48.490;9.222;2024-02-14T04:37:22;8.30;;;5.10;;
6485;SDS011;3276;48.490;9.222;2024-02-14T04:39:48;11.13;;;5.97;;
6485;SDS011;3276;48.490;9.222;2024-02-14T04:42:13;8.03;;;4.70;;
6485;SDS011;3276;48.490;9.222;2024-02-14T04:44:39;9.00;;;5.10;;
6485;SDS011;3276;48.490;9.222;2024-02-14T04:47:05;7.03;;;4.90;;
6485;SDS011;3276;48.490;9.222;2024-02-14T04:49:30;8.07;;;5.20;;
6485;SDS011;3276;48.490;9.222;2024-02-14T04:51:56;6.40;;;5.10;;
6485;SDS011;3276;48.490;9.222;2024-02-14T04:54:22;5.97;;;4.13;;
6485;SDS011;3276;48.490;9.222;2024-02-14T04:56:48;10.57;;;5.80;;
6485;SDS011;3276;48.490;9.222;2024-02-14T04:59:13;7.13;;;5.50;;
6485;SDS011;3276;48.490;9.222;2024-02-14T05:01:39;6.20;;;5.20;;
6485;SDS011;3276;48.490;9.222;2024-02-14T05:04:07;8.95;;;5.90;;
6485;SDS011;3276;48.490;9.222;2024-02-14T05:06:33;8.10;;;5.43;;
6485;SDS011;3276;48.490;9.222;2024-02-14T05:08:58;8.23;;;5.80;;
6485;SDS011;3276;48.490;9.222;2024-02-14T05:11:24;13.93;;;7.90;;
6485;SDS011;3276;48.490;9.222;2024-02-14T05:13:50;8.27;;;5.80;;
6485;SDS011;3276;48.490;9.222;2024-02-14T05:16:19;7.20;;;5.93;;
6485;SDS011;3276;48.490;9.222;2024-02-14T05:18:44;9.73;;;6.77;;
6485;SDS011;3276;48.490;9.222;2024-02-14T05:21:10;8.20;;;5.23;;
6485;SDS011;3276;48.490;9.222;2024-02-14T05:23:36;10.60;;;6.27;;
6485;SDS011;3276;48.490;9.222;2024-02-14T05:26:04;6.97;;;6.30;;
6485;SDS011;3276;48.490;9.222;2024-02-14T05:28:30;6.80;;;5.30;;
6485;SDS011;3276;48.490;9.222;2024-02-14T05:30:56;7.97;;;6.10;;
6485;SDS011;3276;48.490;9.222;2024-02-14T05:33:22;6.03;;;5.40;;
6485;SDS011;3276;48.490;9.222;2024-02-14T05:35:51;14.50;;;4.37;;
6485;SDS011;3276;48.490;9.222;2024-02-14T05:38:17;7.13;;;4.33;;
6485;SDS011;3276;48.490;9.222;2024-02-14T05:40:46;7.13;;;5.13;;
6485;SDS011;3276;48.490;9.222;2024-02-14T05:43:12;8.40;;;3.30;;
6485;SDS011;3276;48.490;9.222;2024-02-14T05:45:38;4.97;;;3.63;;
6485;SDS011;3276;48.490;9.222;2024-02-14T05:48:03;8.20;;;3.33;;
6485;SDS011;3276;48.490;9.222;2024-02-14T05:50:29;5.73;;;3.90;;
6485;SDS011;3276;48.490;9.222;2024-02-14T05:52:55;5.40;;;3.60;;
6485;SDS011;3276;48.490;9.222;2024-02-14T05:55:22;7.13;;;3.77;;
6485;SDS011;3276;48.490;9.222;2024-02-14T05:57:48;7.03;;;3.60;;
6485;SDS011;3276;48.490;9.222;2024-02-14T06:00:15;5.20;;;3.80;;
6485;SDS011;3276;48.490;9.222;2024-02-14T06:02:41;5.93;;;4.57;;
6485;SDS011;3276;48.490;9.222;2024-02-14T06:05:06;9.43;;;4.10;;
6485;SDS011;3276;48.490;9.222;2024-02-14T06:07:39;10.50;;;4.23;;
6485;SDS011;3276;48.490;9.222;2024-02-14T06:10:05;7.97;;;3.80;;
6485;SDS011;3276;48.490;9.222;2024-02-14T06:12:31;6.47;;;4.00;;
6485;SDS011;3276;48.490;9.222;2024-02-14T06:14:57;6.07;;;3.43;;
6485;SDS011;3276;48.490;9.222;2024-02-14T06:17:23;5.90;;;3.10;;
6485;SDS011;3276;48.490;9.222;2024-02-14T06:19:51;3.37;;;2.37;;
6485;SDS011;3276;48.490;9.222;2024-02-14T06:22:16;4.30;;;3.20;;
6485;SDS011;3276;48.490;9.222;2024-02-14T06:24:42;4.70;;;3.10;;
6485;SDS011;3276;48.490;9.222;2024-02-14T06:27:07;3.83;;;2.93;;
6485;SDS011;3276;48.490;9.222;2024-02-14T06:29:33;7.97;;;3.77;;
6485;SDS011;3276;48.490;9.222;2024-02-14T06:31:58;7.60;;;3.57;;
6485;SDS011;3276;48.490;9.222;2024-02-14T06:34:24;5.73;;;3.27;;
6485;SDS011;3276;48.490;9.222;2024-02-14T06:36:51;4.80;;;3.37;;
6485;SDS011;3276;48.490;9.222;2024-02-14T06:39:16;5.57;;;2.60;;
6485;SDS011;3276;48.490;9.222;2024-02-14T06:41:42;10.60;;;2.80;;
6485;SDS011;3276;48.490;9.222;2024-02-14T06:44:10;6.70;;;3.30;;
6485;SDS011;3276;48.490;9.222;2024-02-14T06:46:35;6.50;;;3.50;;
6485;SDS011;3276;48.490;9.222;2024-02-14T06:49:02;4.40;;;3.00;;
6485;SDS011;3276;48.490;9.222;2024-02-14T06:51:28;6.57;;;3.80;;
6485;SDS011;3276;48.490;9.222;2024-02-14T06:53:55;5.80;;;3.50;;
6485;SDS011;3276;48.490;9.222;2024-02-14T06:56:21;3.83;;;2.80;;
6485;SDS011;3276;48.490;9.222;2024-02-14T06:58:47;4.53;;;2.63;;
6485;SDS011;3276;48.490;9.222;2024-02-14T07:01:17;8.30;;;3.03;;
6485;SDS011;3276;48.490;9.222;2024-02-14T07:03:46;5.37;;;2.43;;
6485;SDS011;3276;48.490;9.222;2024-02-14T07:06:12;4.07;;;2.47;;
6485;SDS011;3276;48.490;9.222;2024-02-14T07:08:40;5.30;;;2.77;;
6485;SDS011;3276;48.490;9.222;2024-02-14T07:11:06;3.33;;;2.93;;
6485;SDS011;3276;48.490;9.222;2024-02-14T07:13:31;4.00;;;2.43;;
6485;SDS011;3276;48.490;9.222;2024-02-14T07:15:57;4.70;;;2.80;;
6485;SDS011;3276;48.490;9.222;2024-02-14T07:18:22;6.10;;;4.30;;
6485;SDS011;3276;48.490;9.222;2024-02-14T07:20:48;4.63;;;2.47;;
6485;SDS011;3276;48.490;9.222;2024-02-14T07:23:13;6.23;;;2.80;;
6485;SDS011;3276;48.490;9.222;2024-02-14T07:25:39;3.80;;;2.73;;
6485;SDS011;3276;48.490;9.222;2024-02-14T07:28:06;7.93;;;3.80;;
6485;SDS011;3276;48.490;9.222;2024-02-14T07:30:31;3.83;;;2.83;;
6485;SDS011;3276;48.490;9.222;2024-02-14T07:32:57;4.00;;;3.47;;
6485;SDS011;3276;48.490;9.222;2024-02-14T07:35:22;6.00;;;3.83;;
6485;SDS011;3276;48.490;9.222;2024-02-14T07:37:48;6.03;;;3.30;;
6485;SDS011;3276;48.490;9.222;2024-02-14T07:40:13;4.00;;;3.10;;
6485;SDS011;3276;48.490;9.222;2024-02-14T07:42:39;6.43;;;3.70;;
6485;SDS011;3276;48.490;9.222;2024-02-14T07:45:05;7.70;;;3.67;;
6485;SDS011;3276;48.490;9.222;2024-02-14T07:47:31;6.53;;;4.80;;
6485;SDS011;3276;48.490;9.222;2024-02-14T07:49:56;5.60;;;4.37;;
6485;SDS011;3276;48.490;9.222;2024-02-14T07:52:22;10.70;;;4.03;;
6485;SDS011;3276;48.490;9.222;2024-02-14T07:54:52;6.00;;;4.73;;
6485;SDS011;3276;48.490;9.222;2024-02-14T07:57:18;7.20;;;2.80;;
6485;SDS011;3276;48.490;9.222;2024-02-14T07:59:44;5.43;;;2.23;;
6485;SDS011;3276;48.490;9.222;2024-02-14T08:02:10;2.73;;;1.83;;
6485;SDS011;3276;48.490;9.222;2024-02-14T08:04:35;5.80;;;2.50;;
6485;SDS011;3276;48.490;9.222;2024-02-14T08:07:01;6.73;;;3.73;;
6485;SDS011;3276;48.490;9.222;2024-02-14T08:09:26;6.63;;;3.80;;
6485;SDS011;3276;48.490;9.222;2024-02-14T08:11:52;6.10;;;3.57;;
6485;SDS011;3276;48.490;9.222;2024-02-14T08:14:18;4.90;;;3.67;;
6485;SDS011;3276;48.490;9.222;2024-02-14T08:16:43;6.10;;;4.07;;
6485;SDS011;3276;48.490;9.222;2024-02-14T08:19:09;4.43;;;3.27;;
6485;SDS011;3276;48.490;9.222;2024-02-14T08:21:35;5.53;;;3.30;;
6485;SDS011;3276;48.490;9.222;2024-02-14T08:24:01;3.10;;;2.70;;
6485;SDS011;3276;48.490;9.222;2024-02-14T08:26:26;8.53;;;2.83;;
6485;SDS011;3276;48.490;9.222;2024-02-14T08:28:52;6.80;;;3.63;;
6485;SDS011;3276;48.490;9.222;2024-02-14T08:31:19;5.07;;;2.73;;
6485;SDS011;3276;48.490;9.222;2024-02-14T08:33:45;6.93;;;2.90;;
6485;SDS011;3276;48.490;9.222;2024-02-14T08:36:11;5.87;;;2.57;;
6485;SDS011;3276;48.490;9.222;2024-02-14T08:38:36;4.60;;;2.37;;
6485;SDS011;3276;48.490;9.222;2024-02-14T08:41:02;5.87;;;2.27;;
6485;SDS011;3276;48.490;9.222;2024-02-14T08:43:28;8.10;;;3.00;;
6485;SDS011;3276;48.490;9.222;2024-02-14T08:45:54;4.47;;;2.40;;
6485;SDS011;3276;48.490;9.222;2024-02-14T08:48:20;4.20;;;2.30;;
6485;SDS011;3276;48.490;9.222;2024-02-14T08:50:46;8.43;;;3.00;;
6485;SDS011;3276;48.490;9.222;2024-02-14T08:53:12;5.50;;;2.73;;
6485;SDS011;3276;48.490;9.222;2024-02-14T08:55:39;6.97;;;3.23;;
6485;SDS011;3276;48.490;9.222;2024-02-14T08:58:05;7.10;;;3.50;;
6485;SDS011;3276;48.490;9.222;2024-02-14T09:00:31;6.53;;;4.23;;
6485;SDS011;3276;48.490;9.222;2024-02-14T09:03:00;4.90;;;3.50;;
6485;SDS011;3276;48.490;9.222;2024-02-14T09:05:25;7.33;;;3.37;;
6485;SDS011;3276;48.490;9.222;2024-02-14T09:07:53;6.60;;;3.63;;
6485;SDS011;3276;48.490;9.222;2024-02-14T09:10:18;5.80;;;3.33;;
6485;SDS011;3276;48.490;9.222;2024-02-14T09:12:44;5.20;;;3.20;;
6485;SDS011;3276;48.490;9.222;2024-02-14T09:15:10;14.43;;;2.63;;
6485;SDS011;3276;48.490;9.222;2024-02-14T09:17:36;4.23;;;3.07;;
6485;SDS011;3276;48.490;9.222;2024-02-14T09:20:03;6.73;;;3.20;;
6485;SDS011;3276;48.490;9.222;2024-02-14T09:22:31;3.97;;;2.63;;
6485;SDS011;3276;48.490;9.222;2024-02-14T09:24:58;5.50;;;3.33;;
6485;SDS011;3276;48.490;9.222;2024-02-14T09:27:24;4.90;;;2.60;;
6485;SDS011;3276;48.490;9.222;2024-02-14T09:29:49;5.90;;;2.40;;
6485;SDS011;3276;48.490;9.222;2024-02-14T09:32:15;5.93;;;3.10;;
6485;SDS011;3276;48.490;9.222;2024-02-14T09:34:41;6.03;;;2.93;;
6485;SDS011;3276;48.490;9.222;2024-02-14T09:37:06;5.83;;;3.90;;
6485;SDS011;3276;48.490;9.222;2024-02-14T09:39:32;6.03;;;3.57;;
6485;SDS011;3276;48.490;9.222;2024-02-14T09:42:01;3.53;;;2.63;;
6485;SDS011;3276;48.490;9.222;2024-02-14T09:44:32;4.60;;;2.90;;
6485;SDS011;3276;48.490;9.222;2024-02-14T09:46:59;5.80;;;3.93;;
6485;SDS011;3276;48.490;9.222;2024-02-14T09:49:26;3.60;;;2.40;;
6485;SDS011;3276;48.490;9.222;2024-02-14T09:51:53;6.73;;;3.60;;
6485;SDS011;3276;48.490;9.222;2024-02-14T09:54:20;6.57;;;3.80;;
6485;SDS011;3276;48.490;9.222;2024-02-14T09:56:50;4.77;;;2.83;;
6485;SDS011;3276;48.490;9.222;2024-02-14T09:59:18;4.10;;;3.23;;
6485;SDS011;3276;48.490;9.222;2024-02-14T10:01:45;5.07;;;2.90;;
6485;SDS011;3276;48.490;9.222;2024-02-14T10:04:12;3.70;;;2.87;;
6485;SDS011;3276;48.490;9.222;2024-02-14T10:06:38;3.00;;;2.20;;
6485;SDS011;3276;48.490;9.222;2024-02-14T10:09:04;5.87;;;3.07;;
6485;SDS011;3276;48.490;9.222;2024-02-14T10:11:33;4.77;;;2.20;;
6485;SDS011;3276;48.490;9.222;2024-02-14T10:13:58;8.03;;;2.83;;
6485;SDS011;3276;48.490;9.222;2024-02-14T10:16:28;3.00;;;2.43;;
6485;SDS011;3276;48.490;9.222;2024-02-14T10:18:53;3.30;;;3.00;;
6485;SDS011;3276;48.490;9.222;2024-02-14T10:21:19;2.40;;;1.80;;
6485;SDS011;3276;48.490;9.222;2024-02-14T10:23:46;9.90;;;2.77;;
6485;SDS011;3276;48.490;9.222;2024-02-14T10:26:14;3.90;;;2.53;;
6485;SDS011;3276;48.490;9.222;2024-02-14T10:28:41;3.87;;;2.67;;
6485;SDS011;3276;48.490;9.222;2024-02-14T10:31:07;7.53;;;3.13;;
6485;SDS011;3276;48.490;9.222;2024-02-14T10:33:35;3.03;;;2.20;;
6485;SDS011;3276;48.490;9.222;2024-02-14T10:36:00;4.50;;;2.80;;
6485;SDS011;3276;48.490;9.222;2024-02-14T10:38:28;2.27;;;1.63;;
6485;SDS011;3276;48.490;9.222;2024-02-14T10:40:58;2.53;;;1.50;;
6485;SDS011;3276;48.490;9.222;2024-02-14T10:43:25;3.90;;;1.63;;
6485;SDS011;3276;48.490;9.222;2024-02-14T10:45:52;5.03;;;1.50;;
6485;SDS011;3276;48.490;9.222;2024-02-14T10:48:19;3.57;;;1.70;;
6485;SDS011;3276;48.490;9.222;2024-02-14T10:50:50;1.80;;;0.90;;
6485;SDS011;3276;48.490;9.222;2024-02-14T10:53:17;2.43;;;1.27;;
6485;SDS011;3276;48.490;9.222;2024-02-14T10:55:45;2.20;;;1.13;;
6485;SDS011;3276;48.490;9.222;2024-02-14T10:58:12;1.93;;;1.07;;
6485;SDS011;3276;48.490;9.222;2024-02-14T11:00:41;2.10;;;1.03;;
6485;SDS011;3276;48.490;9.222;2024-02-14T11:03:07;2.37;;;1.10;;
6485;SDS011;3276;48.490;9.222;2024-02-14T11:05:42;3.40;;;1.17;;
6485;SDS011;3276;48.490;9.222;2024-02-14T11:08:10;3.00;;;0.87;;
6485;SDS011;3276;48.490;9.222;2024-02-14T11:10:39;2.20;;;1.13;;
6485;SDS011;3276;48.490;9.222;2024-02-14T11:13:04;2.43;;;1.00;;
6485;SDS011;3276;48.490;9.222;2024-02-14T11:15:35;5.00;;;1.00;;
6485;SDS011;3276;48.490;9.222;2024-02-14T11:18:04;3.83;;;1.63;;
6485;SDS011;3276;48.490;9.222;2024-02-14T11:20:35;2.00;;;1.13;;
6485;SDS011;3276;48.490;9.222;2024-02-14T11:23:05;1.77;;;0.77;;
6485;SDS011;3276;48.490;9.222;2024-02-14T11:25:35;1.90;;;1.00;;
6485;SDS011;3276;48.490;9.222;2024-02-14T11:28:12;3.37;;;1.40;;
6485;SDS011;3276;48.490;9.222;2024-02-14T11:30:39;1.80;;;0.80;;
6485;SDS011;3276;48.490;9.222;2024-02-14T11:33:10;2.17;;;1.00;;
6485;SDS011;3276;48.490;9.222;2024-02-14T11:35:43;2.63;;;1.30;;
6485;SDS011;3276;48.490;9.222;2024-02-14T11:38:10;1.80;;;0.80;;
6485;SDS011;3276;48.490;9.222;2024-02-14T11:40:38;1.90;;;1.10;;
6485;SDS011;3276;48.490;9.222;2024-02-14T11:43:04;2.20;;;1.00;;
6485;SDS011;3276;48.490;9.222;2024-02-14T11:45:35;2.20;;;0.93;;
6485;SDS011;3276;48.490;9.222;2024-02-14T11:48:04;2.00;;;0.90;;
6485;SDS011;3276;48.490;9.222;2024-02-14T11:50:30;2.93;;;1.10;;
6485;SDS011;3276;48.490;9.222;2024-02-14T11:52:56;1.87;;;1.00;;
6485;SDS011;3276;48.490;9.222;2024-02-14T11:55:27;2.20;;;1.00;;
6485;SDS011;3276;48.490;9.222;2024-02-14T11:57:53;2.93;;;0.77;;
6485;SDS011;3276;48.490;9.222;2024-02-14T12:00:19;2.47;;;1.00;;
6485;SDS011;3276;48.490;9.222;2024-02-14T12:02:45;1.70;;;0.70;;
6485;SDS011;3276;48.490;9.222;2024-02-14T12:05:11;1.90;;;1.00;;
6485;SDS011;3276;48.490;9.222;2024-02-14T12:07:36;2.23;;;0.87;;
6485;SDS011;3276;48.490;9.222;2024-02-14T12:10:03;1.87;;;0.80;;
6485;SDS011;3276;48.490;9.222;2024-02-14T12:12:28;2.20;;;1.00;;
6485;SDS011;3276;48.490;9.222;2024-02-14T12:14:54;2.03;;;0.90;;
6485;SDS011;3276;48.490;9.222;2024-02-14T12:17:19;1.70;;;0.80;;
6485;SDS011;3276;48.490;9.222;2024-02-14T12:19:47;1.70;;;0.83;;
6485;SDS011;3276;48.490;9.222;2024-02-14T12:22:13;2.20;;;1.00;;
6485;SDS011;3276;48.490;9.222;2024-02-14T12:24:43;1.60;;;0.70;;
6485;SDS011;3276;48.490;9.222;2024-02-14T12:27:09;1.90;;;0.90;;
6485;SDS011;3276;48.490;9.222;2024-02-14T12:29:35;2.10;;;1.10;;
6485;SDS011;3276;48.490;9.222;2024-02-14T12:32:07;1.60;;;0.73;;
6485;SDS011;3276;48.490;9.222;2024-02-14T12:34:33;1.70;;;0.80;;
6485;SDS011;3276;48.490;9.222;2024-02-14T12:36:59;2.80;;;1.50;;
6485;SDS011;3276;48.490;9.222;2024-02-14T12:39:26;2.53;;;0.77;;
6485;SDS011;3276;48.490;9.222;2024-02-14T12:41:52;1.90;;;0.87;;
6485;SDS011;3276;48.490;9.222;2024-02-14T12:44:18;2.10;;;0.90;;
6485;SDS011;3276;48.490;9.222;2024-02-14T12:46:43;2.00;;;0.90;;
6485;SDS011;3276;48.490;9.222;2024-02-14T12:49:09;1.70;;;0.80;;
6485;SDS011;3276;48.490;9.222;2024-02-14T12:51:36;1.70;;;0.90;;
6485;SDS011;3276;48.490;9.222;2024-02-14T12:54:04;1.60;;;0.70;;
6485;SDS011;3276;48.490;9.222;2024-02-14T12:56:30;1.70;;;0.80;;
6485;SDS011;3276;48.490;9.222;2024-02-14T12:58:57;1.87;;;0.70;;
6485;SDS011;3276;48.490;9.222;2024-02-14T13:01:24;1.50;;;0.50;;
6485;SDS011;3276;48.490;9.222;2024-02-14T13:03:50;2.00;;;0.90;;
6485;SDS011;3276;48.490;9.222;2024-02-14T13:06:15;2.47;;;1.27;;
6485;SDS011;3276;48.490;9.222;2024-02-14T13:08:41;1.90;;;1.13;;
6485;SDS011;3276;48.490;9.222;2024-02-14T13:11:07;3.90;;;0.97;;
6485;SDS011;3276;48.490;9.222;2024-02-14T13:13:33;1.80;;;0.70;;
6485;SDS011;3276;48.490;9.222;2024-02-14T13:15:59;1.93;;;0.90;;
6485;SDS011;3276;48.490;9.222;2024-02-14T13:18:25;3.00;;;0.80;;
6485;SDS011;3276;48.490;9.222;2024-02-14T13:20:51;2.07;;;0.90;;
6485;SDS011;3276;48.490;9.222;2024-02-14T13:23:24;1.73;;;0.80;;
6485;SDS011;3276;48.490;9.222;2024-02-14T13:25:52;1.50;;;0.60;;
6485;SDS011;3276;48.490;9.222;2024-02-14T13:28:18;1.83;;;0.80;;
6485;SDS011;3276;48.490;9.222;2024-02-14T13:30:44;2.07;;;0.83;;
6485;SDS011;3276;48.490;9.222;2024-02-14T13:33:11;2.20;;;1.10;;
6485;SDS011;3276;48.490;9.222;2024-02-14T13:35:38;1.77;;;0.70;;
6485;SDS011;3276;48.490;9.222;2024-02-14T13:38:05;3.60;;;1.07;;
6485;SDS011;3276;48.490;9.222;2024-02-14T13:40:31;1.60;;;0.80;;
6485;SDS011;3276;48.490;9.222;2024-02-14T13:42:57;2.07;;;1.17;;
6485;SDS011;3276;48.490;9.222;2024-02-14T13:45:23;1.80;;;0.90;;
6485;SDS011;3276;48.490;9.222;2024-02-14T13:47:49;1.90;;;0.90;;
6485;SDS011;3276;48.490;9.222;2024-02-14T13:50:15;2.03;;;0.80;;
6485;SDS011;3276;48.490;9.222;2024-02-14T13:52:41;1.70;;;0.83;;
6485;SDS011;3276;48.490;9.222;2024-02-14T13:55:07;1.60;;;0.67;;
6485;SDS011;3276;48.490;9.222;2024-02-14T13:57:36;3.47;;;0.90;;
6485;SDS011;3276;48.490;9.222;2024-02-14T14:00:04;2.43;;;1.07;;
6485;SDS011;3276;48.490;9.222;2024-02-14T14:02:36;1.63;;;0.73;;
6485;SDS011;3276;48.490;9.222;2024-02-14T14:05:10;3.23;;;1.00;;
6485;SDS011;3276;48.490;9.222;2024-02-14T14:07:36;2.33;;;0.80;;
6485;SDS011;3276;48.490;9.222;2024-02-14T14:10:05;1.60;;;0.70;;
6485;SDS011;3276;48.490;9.222;2024-02-14T14:12:32;1.60;;;0.60;;
6485;SDS011;3276;48.490;9.222;2024-02-14T14:14:58;1.90;;;0.73;;
6485;SDS011;3276;48.490;9.222;2024-02-14T14:17:26;2.60;;;0.70;;
6485;SDS011;3276;48.490;9.222;2024-02-14T14:19:52;1.77;;;0.80;;
6485;SDS011;3276;48.490;9.222;2024-02-14T14:22:18;2.17;;;1.13;;
6485;SDS011;3276;48.490;9.222;2024-02-14T14:24:43;5.33;;;1.07;;
6485;SDS011;3276;48.490;9.222;2024-02-14T14:27:09;4.13;;;0.80;;
6485;SDS011;3276;48.490;9.222;2024-02-14T14:29:39;1.70;;;0.70;;
6485;SDS011;3276;48.490;9.222;2024-02-14T14:32:09;1.57;;;0.80;;
6485;SDS011;3276;48.490;9.222;2024-02-14T14:34:35;1.60;;;0.70;;
6485;SDS011;3276;48.490;9.222;2024-02-14T14:37:08;2.23;;;0.67;;
6485;SDS011;3276;48.490;9.222;2024-02-14T14:39:35;2.30;;;1.00;;
6485;SDS011;3276;48.490;9.222;2024-02-14T14:42:03;1.63;;;0.73;;
6485;SDS011;3276;48.490;9.222;2024-02-14T14:44:29;1.67;;;0.70;;
6485;SDS011;3276;48.490;9.222;2024-02-14T14:46:55;1.80;;;0.80;;
6485;SDS011;3276;48.490;9.222;2024-02-14T14:49:21;1.90;;;0.80;;
6485;SDS011;3276;48.490;9.222;2024-02-14T14:51:49;3.77;;;1.20;;
6485;SDS011;3276;48.490;9.222;2024-02-14T14:54:15;1.60;;;0.70;;
6485;SDS011;3276;48.490;9.222;2024-02-14T14:56:40;1.90;;;1.00;;
6485;SDS011;3276;48.490;9.222;2024-02-14T14:59:06;2.33;;;0.90;;
6485;SDS011;3276;48.490;9.222;2024-02-14T15:01:32;2.63;;;0.90;;
6485;SDS011;3276;48.490;9.222;2024-02-14T15:04:01;1.70;;;0.77;;
6485;SDS011;3276;48.490;9.222;2024-02-14T15:06:27;2.07;;;1.00;;
6485;SDS011;3276;48.490;9.222;2024-02-14T15:08:55;2.43;;;0.90;;
6485;SDS011;3276;48.490;9.222;2024-02-14T15:11:21;2.37;;;0.90;;